Ganzhou, China
Current Conditions -  °F | °C
As of 10:00 AM on Saturday 29 Nov 2014 (Local Time) from ZGHA Reporting Station
Light Rain Light Rain  
Wind Chill: 54°   Ceiling: 400
Heat Index: 54°   Visibility: 0.75mi
Dew Point: 50°   Wind: 7mph
Humidity: 88%   Direction: NA
Pressure: 30"   Gusts: NA
Location:  25.95°N, 114.93°E
Report Text: ZGHA 290200Z VRB03MPS 1200 R36/1400N -RA BR SCT002BKN004OVC040 12/10 Q1016 BECMG TL0320 1600
Loading
Personal Weather Stations






























Interactive Weather Map New forecast layout! Learn more

10-Day Weather Forecast

Advertisements
Track Severe Weather on mobile